sensor_id;sensor_type;location;lat;lon;timestamp;pressure;altitude;pressure_sealevel;temperature;humidity
38163;BME280;23977;53.078;18.248;2023-05-21T00:01:11;102027.50;;;12.08;100.00
38163;BME280;23977;53.078;18.248;2023-05-21T00:03:41;102070.63;;;12.23;100.00
38163;BME280;23977;53.078;18.248;2023-05-21T00:06:07;102056.03;;;12.17;100.00
38163;BME280;23977;53.078;18.248;2023-05-21T00:08:32;102049.41;;;12.21;100.00
38163;BME280;23977;53.078;18.248;2023-05-21T00:10:58;102054.75;;;12.21;100.00
38163;BME280;23977;53.078;18.248;2023-05-21T00:13:24;102075.00;;;12.14;100.00
38163;BME280;23977;53.078;18.248;2023-05-21T00:15:50;102055.56;;;11.93;100.00
38163;BME280;23977;53.078;18.248;2023-05-21T00:18:15;102054.66;;;11.82;100.00
38163;BME280;23977;53.078;18.248;2023-05-21T00:20:41;102071.56;;;11.93;100.00
38163;BME280;23977;53.078;18.248;2023-05-21T00:23:06;102073.78;;;11.88;100.00
38163;BME280;23977;53.078;18.248;2023-05-21T00:25:32;102066.81;;;11.96;100.00
38163;BME280;23977;53.078;18.248;2023-05-21T00:27:57;102065.91;;;11.86;100.00
38163;BME280;23977;53.078;18.248;2023-05-21T00:30:24;102049.84;;;11.66;100.00
38163;BME280;23977;53.078;18.248;2023-05-21T00:32:49;102070.38;;;11.76;100.00
38163;BME280;23977;53.078;18.248;2023-05-21T00:35:15;102036.47;;;11.57;100.00
38163;BME280;23977;53.078;18.248;2023-05-21T00:37:41;102080.19;;;11.75;100.00
38163;BME280;23977;53.078;18.248;2023-05-21T00:40:07;101979.91;;;11.13;100.00
38163;BME280;23977;53.078;18.248;2023-05-21T00:42:33;102070.91;;;11.70;100.00
38163;BME280;23977;53.078;18.248;2023-05-21T00:45:05;102074.25;;;11.62;100.00
38163;BME280;23977;53.078;18.248;2023-05-21T00:47:31;101991.03;;;11.18;100.00
38163;BME280;23977;53.078;18.248;2023-05-21T00:49:58;102013.47;;;11.25;100.00
38163;BME280;23977;53.078;18.248;2023-05-21T00:52:23;102060.78;;;11.63;100.00
38163;BME280;23977;53.078;18.248;2023-05-21T00:54:51;102066.75;;;11.87;100.00
38163;BME280;23977;53.078;18.248;2023-05-21T00:57:22;102065.97;;;11.96;100.00
38163;BME280;23977;53.078;18.248;2023-05-21T00:59:51;102068.66;;;11.75;100.00
38163;BME280;23977;53.078;18.248;2023-05-21T01:02:17;102061.03;;;11.60;100.00
38163;BME280;23977;53.078;18.248;2023-05-21T01:04:46;102007.19;;;11.26;100.00
38163;BME280;23977;53.078;18.248;2023-05-21T01:07:12;102073.41;;;11.61;100.00
38163;BME280;23977;53.078;18.248;2023-05-21T01:09:42;101995.78;;;11.14;100.00
38163;BME280;23977;53.078;18.248;2023-05-21T01:12:08;101999.72;;;11.20;100.00
38163;BME280;23977;53.078;18.248;2023-05-21T01:14:36;102064.75;;;11.38;100.00
38163;BME280;23977;53.078;18.248;2023-05-21T01:17:04;102071.47;;;11.33;100.00
38163;BME280;23977;53.078;18.248;2023-05-21T01:19:31;102072.09;;;11.25;100.00
38163;BME280;23977;53.078;18.248;2023-05-21T01:22:03;102048.47;;;11.10;100.00
38163;BME280;23977;53.078;18.248;2023-05-21T01:24:30;102048.19;;;11.14;100.00
38163;BME280;23977;53.078;18.248;2023-05-21T01:26:55;102023.78;;;11.08;100.00
38163;BME280;23977;53.078;18.248;2023-05-21T01:29:23;102027.69;;;11.04;100.00
38163;BME280;23977;53.078;18.248;2023-05-21T01:31:58;102058.78;;;11.25;100.00
38163;BME280;23977;53.078;18.248;2023-05-21T01:34:38;102029.19;;;10.97;100.00
38163;BME280;23977;53.078;18.248;2023-05-21T01:37:44;102062.00;;;10.98;100.00
38163;BME280;23977;53.078;18.248;2023-05-21T01:40:11;102056.63;;;10.88;100.00
38163;BME280;23977;53.078;18.248;2023-05-21T01:42:41;102054.47;;;10.82;100.00
38163;BME280;23977;53.078;18.248;2023-05-21T01:45:09;102035.41;;;10.65;100.00
38163;BME280;23977;53.078;18.248;2023-05-21T01:47:36;102027.03;;;10.49;100.00
38163;BME280;23977;53.078;18.248;2023-05-21T01:50:04;102021.72;;;10.49;100.00
38163;BME280;23977;53.078;18.248;2023-05-21T01:52:29;102063.41;;;10.60;100.00
38163;BME280;23977;53.078;18.248;2023-05-21T01:54:56;102042.00;;;10.61;100.00
38163;BME280;23977;53.078;18.248;2023-05-21T01:57:22;102041.00;;;10.62;100.00
38163;BME280;23977;53.078;18.248;2023-05-21T01:59:47;102057.06;;;10.93;100.00
38163;BME280;23977;53.078;18.248;2023-05-21T02:02:13;102031.09;;;10.64;100.00
38163;BME280;23977;53.078;18.248;2023-05-21T02:04:39;101994.94;;;10.29;100.00
38163;BME280;23977;53.078;18.248;2023-05-21T02:07:08;101994.72;;;10.21;100.00
38163;BME280;23977;53.078;18.248;2023-05-21T02:09:34;102052.31;;;10.54;100.00
38163;BME280;23977;53.078;18.248;2023-05-21T02:12:02;102016.97;;;10.20;100.00
38163;BME280;23977;53.078;18.248;2023-05-21T02:14:28;102025.91;;;10.19;100.00
38163;BME280;23977;53.078;18.248;2023-05-21T02:16:54;102048.84;;;10.43;100.00
38163;BME280;23977;53.078;18.248;2023-05-21T02:19:19;102047.88;;;10.44;100.00
38163;BME280;23977;53.078;18.248;2023-05-21T02:21:45;102021.28;;;10.32;100.00
38163;BME280;23977;53.078;18.248;2023-05-21T02:24:10;102024.63;;;10.46;100.00
38163;BME280;23977;53.078;18.248;2023-05-21T02:26:36;102009.66;;;10.45;100.00
38163;BME280;23977;53.078;18.248;2023-05-21T02:29:02;102040.03;;;10.63;100.00
38163;BME280;23977;53.078;18.248;2023-05-21T02:31:28;102034.81;;;10.41;100.00
38163;BME280;23977;53.078;18.248;2023-05-21T02:33:54;102003.44;;;10.12;100.00
38163;BME280;23977;53.078;18.248;2023-05-21T02:36:20;102047.66;;;10.35;100.00
38163;BME280;23977;53.078;18.248;2023-05-21T02:38:46;102001.50;;;10.14;100.00
38163;BME280;23977;53.078;18.248;2023-05-21T02:41:12;102021.78;;;10.26;100.00
38163;BME280;23977;53.078;18.248;2023-05-21T02:43:37;102038.66;;;10.48;100.00
38163;BME280;23977;53.078;18.248;2023-05-21T02:46:04;102034.56;;;10.44;100.00
38163;BME280;23977;53.078;18.248;2023-05-21T02:48:30;102042.53;;;10.44;100.00
38163;BME280;23977;53.078;18.248;2023-05-21T02:50:57;102045.03;;;10.57;100.00
38163;BME280;23977;53.078;18.248;2023-05-21T02:53:22;102032.03;;;10.42;100.00
38163;BME280;23977;53.078;18.248;2023-05-21T02:55:49;102034.69;;;10.42;100.00
38163;BME280;23977;53.078;18.248;2023-05-21T02:58:15;101982.25;;;10.22;100.00
38163;BME280;23977;53.078;18.248;2023-05-21T03:00:41;102043.94;;;10.59;100.00
38163;BME280;23977;53.078;18.248;2023-05-21T03:03:06;102047.19;;;10.84;100.00
38163;BME280;23977;53.078;18.248;2023-05-21T03:05:32;102043.81;;;10.82;100.00
38163;BME280;23977;53.078;18.248;2023-05-21T03:07:58;102048.09;;;10.94;100.00
38163;BME280;23977;53.078;18.248;2023-05-21T03:10:23;102049.91;;;10.93;100.00
38163;BME280;23977;53.078;18.248;2023-05-21T03:12:49;102029.53;;;10.83;100.00
38163;BME280;23977;53.078;18.248;2023-05-21T03:15:15;102016.09;;;10.84;100.00
38163;BME280;23977;53.078;18.248;2023-05-21T03:17:41;102032.75;;;11.07;100.00
38163;BME280;23977;53.078;18.248;2023-05-21T03:20:10;102049.97;;;11.24;100.00
38163;BME280;23977;53.078;18.248;2023-05-21T03:22:44;102035.75;;;11.24;100.00
38163;BME280;23977;53.078;18.248;2023-05-21T03:25:10;102012.53;;;11.36;100.00
38163;BME280;23977;53.078;18.248;2023-05-21T03:27:37;102001.75;;;11.37;100.00
38163;BME280;23977;53.078;18.248;2023-05-21T03:30:03;101982.94;;;11.39;100.00
38163;BME280;23977;53.078;18.248;2023-05-21T03:32:29;102035.00;;;11.83;100.00
38163;BME280;23977;53.078;18.248;2023-05-21T03:34:55;102010.84;;;11.85;100.00
38163;BME280;23977;53.078;18.248;2023-05-21T03:37:20;102015.84;;;12.09;100.00
38163;BME280;23977;53.078;18.248;2023-05-21T03:39:46;102016.56;;;12.31;100.00
38163;BME280;23977;53.078;18.248;2023-05-21T03:42:11;102017.94;;;12.54;100.00
38163;BME280;23977;53.078;18.248;2023-05-21T03:44:38;102031.09;;;12.95;100.00
38163;BME280;23977;53.078;18.248;2023-05-21T03:47:05;102013.28;;;13.23;100.00
38163;BME280;23977;53.078;18.248;2023-05-21T03:49:30;102005.59;;;13.94;100.00
38163;BME280;23977;53.078;18.248;2023-05-21T03:51:56;102028.63;;;15.03;100.00
38163;BME280;23977;53.078;18.248;2023-05-21T03:54:22;102039.28;;;15.98;100.00
38163;BME280;23977;53.078;18.248;2023-05-21T03:56:49;102008.78;;;16.48;100.00
38163;BME280;23977;53.078;18.248;2023-05-21T03:59:16;102033.03;;;17.29;98.50
38163;BME280;23977;53.078;18.248;2023-05-21T04:01:41;102035.56;;;18.01;93.35
38163;BME280;23977;53.078;18.248;2023-05-21T04:04:07;102041.34;;;18.82;86.90
38163;BME280;23977;53.078;18.248;2023-05-21T04:06:33;102021.91;;;19.47;82.84
38163;BME280;23977;53.078;18.248;2023-05-21T04:08:59;102000.91;;;19.93;79.04
38163;BME280;23977;53.078;18.248;2023-05-21T04:11:25;102031.44;;;20.59;74.74
38163;BME280;23977;53.078;18.248;2023-05-21T04:13:51;102038.38;;;21.31;68.09
38163;BME280;23977;53.078;18.248;2023-05-21T04:16:17;102037.56;;;21.72;68.90
38163;BME280;23977;53.078;18.248;2023-05-21T04:18:44;102026.25;;;22.50;62.19
38163;BME280;23977;53.078;18.248;2023-05-21T04:21:10;102016.84;;;22.53;62.32
38163;BME280;23977;53.078;18.248;2023-05-21T04:23:36;102040.19;;;23.01;60.90
38163;BME280;23977;53.078;18.248;2023-05-21T04:26:02;102034.94;;;23.19;57.14
38163;BME280;23977;53.078;18.248;2023-05-21T04:28:27;102048.88;;;23.43;57.67
38163;BME280;23977;53.078;18.248;2023-05-21T04:30:53;102041.66;;;23.69;55.77
38163;BME280;23977;53.078;18.248;2023-05-21T04:33:23;101993.13;;;23.72;55.08
38163;BME280;23977;53.078;18.248;2023-05-21T04:35:50;102019.75;;;24.59;52.22
38163;BME280;23977;53.078;18.248;2023-05-21T04:38:16;102020.91;;;25.14;49.37
38163;BME280;23977;53.078;18.248;2023-05-21T04:40:47;102035.50;;;25.19;49.82
38163;BME280;23977;53.078;18.248;2023-05-21T04:43:15;102000.53;;;25.53;47.52
38163;BME280;23977;53.078;18.248;2023-05-21T04:45:42;102005.00;;;25.10;49.59
38163;BME280;23977;53.078;18.248;2023-05-21T04:48:07;102007.44;;;26.40;45.57
38163;BME280;23977;53.078;18.248;2023-05-21T04:50:33;102008.34;;;26.10;45.27
38163;BME280;23977;53.078;18.248;2023-05-21T04:52:59;102005.44;;;26.83;45.07
38163;BME280;23977;53.078;18.248;2023-05-21T04:55:25;102026.88;;;27.26;44.87
38163;BME280;23977;53.078;18.248;2023-05-21T04:57:51;102028.69;;;27.61;42.53
38163;BME280;23977;53.078;18.248;2023-05-21T05:00:18;101987.63;;;27.73;42.02
38163;BME280;23977;53.078;18.248;2023-05-21T05:02:44;102009.84;;;27.77;42.58
38163;BME280;23977;53.078;18.248;2023-05-21T05:05:10;102025.03;;;28.30;40.79
38163;BME280;23977;53.078;18.248;2023-05-21T05:07:36;102022.72;;;28.95;39.45
38163;BME280;23977;53.078;18.248;2023-05-21T05:10:02;102019.59;;;28.86;38.03
38163;BME280;23977;53.078;18.248;2023-05-21T05:12:28;102002.13;;;28.92;38.66
38163;BME280;23977;53.078;18.248;2023-05-21T05:14:53;102016.03;;;29.52;36.60
38163;BME280;23977;53.078;18.248;2023-05-21T05:17:19;102015.38;;;30.21;35.92
38163;BME280;23977;53.078;18.248;2023-05-21T05:19:44;102015.28;;;30.11;35.48
38163;BME280;23977;53.078;18.248;2023-05-21T05:22:10;102014.44;;;30.86;34.75
38163;BME280;23977;53.078;18.248;2023-05-21T05:24:36;102015.97;;;31.14;35.09
38163;BME280;23977;53.078;18.248;2023-05-21T05:27:01;102007.50;;;31.26;33.77
38163;BME280;23977;53.078;18.248;2023-05-21T05:29:27;101980.19;;;31.04;34.32
38163;BME280;23977;53.078;18.248;2023-05-21T05:31:53;102014.78;;;30.52;34.74
38163;BME280;23977;53.078;18.248;2023-05-21T05:34:18;102004.38;;;32.06;31.79
38163;BME280;23977;53.078;18.248;2023-05-21T05:36:44;102007.94;;;31.91;31.38
38163;BME280;23977;53.078;18.248;2023-05-21T05:39:10;102009.03;;;32.67;31.50
38163;BME280;23977;53.078;18.248;2023-05-21T05:41:35;102006.00;;;33.39;30.84
38163;BME280;23977;53.078;18.248;2023-05-21T05:44:01;102006.59;;;33.31;29.92
38163;BME280;23977;53.078;18.248;2023-05-21T05:46:27;101994.81;;;33.65;29.01
38163;BME280;23977;53.078;18.248;2023-05-21T05:48:53;102012.66;;;33.33;30.29
38163;BME280;23977;53.078;18.248;2023-05-21T05:51:19;101958.66;;;33.22;29.61
38163;BME280;23977;53.078;18.248;2023-05-21T05:53:45;102001.53;;;34.27;28.38
38163;BME280;23977;53.078;18.248;2023-05-21T05:56:10;101981.69;;;34.74;27.96
38163;BME280;23977;53.078;18.248;2023-05-21T05:58:36;101999.94;;;34.75;27.17
38163;BME280;23977;53.078;18.248;2023-05-21T06:01:01;101992.84;;;34.63;26.54
38163;BME280;23977;53.078;18.248;2023-05-21T06:03:27;102003.06;;;33.70;28.00
38163;BME280;23977;53.078;18.248;2023-05-21T06:05:53;101978.00;;;33.96;28.48
38163;BME280;23977;53.078;18.248;2023-05-21T06:08:20;101998.28;;;34.15;28.28
38163;BME280;23977;53.078;18.248;2023-05-21T06:10:45;101955.59;;;32.37;28.83
38163;BME280;23977;53.078;18.248;2023-05-21T06:13:11;101956.50;;;33.03;28.68
38163;BME280;23977;53.078;18.248;2023-05-21T06:15:36;101973.72;;;33.84;27.22
38163;BME280;23977;53.078;18.248;2023-05-21T06:18:03;101994.13;;;34.76;25.29
38163;BME280;23977;53.078;18.248;2023-05-21T06:20:29;101988.84;;;35.23;25.38
38163;BME280;23977;53.078;18.248;2023-05-21T06:22:55;101992.50;;;35.56;24.99
38163;BME280;23977;53.078;18.248;2023-05-21T06:25:20;101961.53;;;36.06;24.99
38163;BME280;23977;53.078;18.248;2023-05-21T06:27:46;101986.03;;;36.60;23.32
38163;BME280;23977;53.078;18.248;2023-05-21T06:30:12;101976.59;;;36.61;23.22
38163;BME280;23977;53.078;18.248;2023-05-21T06:32:38;101956.78;;;35.93;23.65
38163;BME280;23977;53.078;18.248;2023-05-21T06:35:03;101985.00;;;37.11;23.44
38163;BME280;23977;53.078;18.248;2023-05-21T06:37:29;101965.25;;;37.27;22.71
38163;BME280;23977;53.078;18.248;2023-05-21T06:39:55;101966.53;;;37.88;21.79
38163;BME280;23977;53.078;18.248;2023-05-21T06:42:21;101977.88;;;38.23;21.88
38163;BME280;23977;53.078;18.248;2023-05-21T06:44:46;101989.78;;;38.15;21.44
38163;BME280;23977;53.078;18.248;2023-05-21T06:47:12;101975.44;;;37.99;21.45
38163;BME280;23977;53.078;18.248;2023-05-21T06:49:37;101962.31;;;37.91;20.81
38163;BME280;23977;53.078;18.248;2023-05-21T06:52:03;101974.31;;;38.31;21.88
38163;BME280;23977;53.078;18.248;2023-05-21T06:54:29;101967.06;;;39.11;20.19
38163;BME280;23977;53.078;18.248;2023-05-21T06:56:55;101964.91;;;39.25;20.58
38163;BME280;23977;53.078;18.248;2023-05-21T06:59:20;101967.41;;;40.95;18.41
38163;BME280;23977;53.078;18.248;2023-05-21T07:01:46;101966.16;;;40.06;18.65
38163;BME280;23977;53.078;18.248;2023-05-21T07:04:11;101970.34;;;39.56;19.14
38163;BME280;23977;53.078;18.248;2023-05-21T07:06:37;101958.31;;;38.77;19.43
38163;BME280;23977;53.078;18.248;2023-05-21T07:09:03;101959.69;;;39.67;19.14
38163;BME280;23977;53.078;18.248;2023-05-21T07:11:31;101970.13;;;39.88;18.40
38163;BME280;23977;53.078;18.248;2023-05-21T07:13:57;101962.81;;;39.57;19.24
38163;BME280;23977;53.078;18.248;2023-05-21T07:16:24;101954.72;;;39.82;19.01
38163;BME280;23977;53.078;18.248;2023-05-21T07:18:50;101975.25;;;41.22;17.31
38163;BME280;23977;53.078;18.248;2023-05-21T07:21:15;101945.06;;;41.16;18.05
38163;BME280;23977;53.078;18.248;2023-05-21T07:23:41;101956.50;;;42.36;16.79
38163;BME280;23977;53.078;18.248;2023-05-21T07:26:08;101965.78;;;41.15;16.93
38163;BME280;23977;53.078;18.248;2023-05-21T07:28:34;101944.53;;;40.03;18.05
38163;BME280;23977;53.078;18.248;2023-05-21T07:31:00;101954.19;;;41.46;17.05
38163;BME280;23977;53.078;18.248;2023-05-21T07:33:25;101939.50;;;42.16;16.80
38163;BME280;23977;53.078;18.248;2023-05-21T07:35:51;101942.97;;;42.38;16.48
38163;BME280;23977;53.078;18.248;2023-05-21T07:38:16;101929.38;;;43.58;15.48
38163;BME280;23977;53.078;18.248;2023-05-21T07:40:42;101934.97;;;44.34;15.24
38163;BME280;23977;53.078;18.248;2023-05-21T07:43:08;101933.13;;;43.34;15.27
38163;BME280;23977;53.078;18.248;2023-05-21T07:45:34;101931.91;;;42.29;15.55
38163;BME280;23977;53.078;18.248;2023-05-21T07:47:59;101922.59;;;40.31;16.37
38163;BME280;23977;53.078;18.248;2023-05-21T07:50:28;101948.78;;;42.20;16.08
38163;BME280;23977;53.078;18.248;2023-05-21T07:52:54;101923.13;;;43.20;15.14
38163;BME280;23977;53.078;18.248;2023-05-21T07:55:19;101913.06;;;41.80;16.50
38163;BME280;23977;53.078;18.248;2023-05-21T07:57:45;101944.38;;;41.40;15.47
38163;BME280;23977;53.078;18.248;2023-05-21T08:00:12;101917.56;;;42.18;16.29
38163;BME280;23977;53.078;18.248;2023-05-21T08:02:40;101945.50;;;42.92;15.38
38163;BME280;23977;53.078;18.248;2023-05-21T08:05:06;101921.91;;;43.05;15.25
38163;BME280;23977;53.078;18.248;2023-05-21T08:07:31;101935.47;;;42.05;15.66
38163;BME280;23977;53.078;18.248;2023-05-21T08:09:58;101938.38;;;41.08;16.16
38163;BME280;23977;53.078;18.248;2023-05-21T08:12:23;101934.72;;;40.95;15.52
38163;BME280;23977;53.078;18.248;2023-05-21T08:14:49;101931.72;;;41.42;15.76
38163;BME280;23977;53.078;18.248;2023-05-21T08:17:15;101907.28;;;41.97;14.60
38163;BME280;23977;53.078;18.248;2023-05-21T08:19:41;101921.03;;;41.57;14.76
38163;BME280;23977;53.078;18.248;2023-05-21T08:22:07;101937.94;;;41.60;15.17
38163;BME280;23977;53.078;18.248;2023-05-21T08:24:33;101921.16;;;41.94;15.03
38163;BME280;23977;53.078;18.248;2023-05-21T08:26:58;101935.06;;;43.46;14.87
38163;BME280;23977;53.078;18.248;2023-05-21T08:29:24;101926.59;;;43.58;14.68
38163;BME280;23977;53.078;18.248;2023-05-21T08:31:50;101910.31;;;42.79;14.50
38163;BME280;23977;53.078;18.248;2023-05-21T08:34:15;101936.25;;;43.89;14.61
38163;BME280;23977;53.078;18.248;2023-05-21T08:36:42;101928.28;;;44.94;12.94
38163;BME280;23977;53.078;18.248;2023-05-21T08:39:10;101910.78;;;46.93;11.89
38163;BME280;23977;53.078;18.248;2023-05-21T08:41:38;101901.72;;;48.48;11.48
38163;BME280;23977;53.078;18.248;2023-05-21T08:44:10;101915.00;;;47.43;11.86
38163;BME280;23977;53.078;18.248;2023-05-21T08:46:38;101918.91;;;48.25;12.21
38163;BME280;23977;53.078;18.248;2023-05-21T08:49:05;101905.38;;;47.11;11.76
38163;BME280;23977;53.078;18.248;2023-05-21T08:51:34;101914.75;;;45.81;12.70
38163;BME280;23977;53.078;18.248;2023-05-21T08:54:00;101913.31;;;47.01;11.85
38163;BME280;23977;53.078;18.248;2023-05-21T08:56:27;101906.94;;;46.47;12.89
38163;BME280;23977;53.078;18.248;2023-05-21T08:58:56;101908.66;;;46.52;12.22
38163;BME280;23977;53.078;18.248;2023-05-21T09:01:23;101903.91;;;47.24;12.71
38163;BME280;23977;53.078;18.248;2023-05-21T09:03:51;101884.28;;;47.76;11.91
38163;BME280;23977;53.078;18.248;2023-05-21T09:06:17;101882.03;;;45.96;12.64
38163;BME280;23977;53.078;18.248;2023-05-21T09:08:44;101902.56;;;46.23;12.68
38163;BME280;23977;53.078;18.248;2023-05-21T09:11:13;101899.84;;;45.57;13.40
38163;BME280;23977;53.078;18.248;2023-05-21T09:13:40;101900.13;;;44.55;13.42
38163;BME280;23977;53.078;18.248;2023-05-21T09:16:08;101904.53;;;44.36;14.33
38163;BME280;23977;53.078;18.248;2023-05-21T09:18:34;101902.94;;;43.15;14.85
38163;BME280;23977;53.078;18.248;2023-05-21T09:23:58;101896.25;;;40.50;15.70
38163;BME280;23977;53.078;18.248;2023-05-21T09:26:24;101904.97;;;38.84;17.39
38163;BME280;23977;53.078;18.248;2023-05-21T09:28:56;101881.28;;;37.98;17.42
38163;BME280;23977;53.078;18.248;2023-05-21T09:31:24;101898.44;;;39.06;17.38
38163;BME280;23977;53.078;18.248;2023-05-21T09:33:51;101900.91;;;40.07;16.57
38163;BME280;23977;53.078;18.248;2023-05-21T09:36:18;101897.41;;;41.54;15.65
38163;BME280;23977;53.078;18.248;2023-05-21T09:38:46;101872.47;;;41.61;15.43
38163;BME280;23977;53.078;18.248;2023-05-21T09:41:12;101888.88;;;41.84;15.32
38163;BME280;23977;53.078;18.248;2023-05-21T09:43:41;101874.66;;;39.35;16.33
38163;BME280;23977;53.078;18.248;2023-05-21T09:46:07;101897.25;;;39.42;16.86
38163;BME280;23977;53.078;18.248;2023-05-21T09:48:36;101891.88;;;39.28;16.14
38163;BME280;23977;53.078;18.248;2023-05-21T09:51:12;101893.47;;;38.77;17.84
38163;BME280;23977;53.078;18.248;2023-05-21T09:53:55;101894.31;;;39.56;17.79
38163;BME280;23977;53.078;18.248;2023-05-21T09:56:26;101882.00;;;39.57;16.93
38163;BME280;23977;53.078;18.248;2023-05-21T09:58:56;101891.50;;;38.68;17.34
38163;BME280;23977;53.078;18.248;2023-05-21T10:01:23;101844.88;;;37.76;18.05
38163;BME280;23977;53.078;18.248;2023-05-21T10:03:53;101888.81;;;35.82;19.33
38163;BME280;23977;53.078;18.248;2023-05-21T10:06:20;101885.47;;;34.71;20.55
38163;BME280;23977;53.078;18.248;2023-05-21T10:08:52;101894.53;;;33.74;20.97
38163;BME280;23977;53.078;18.248;2023-05-21T10:11:18;101817.13;;;32.06;23.17
38163;BME280;23977;53.078;18.248;2023-05-21T10:13:50;101904.66;;;30.58;24.88
38163;BME280;23977;53.078;18.248;2023-05-21T10:16:18;101880.75;;;30.11;25.29
38163;BME280;23977;53.078;18.248;2023-05-21T10:18:45;101854.84;;;29.32;25.79
38163;BME280;23977;53.078;18.248;2023-05-21T10:21:13;101895.97;;;29.59;27.31
38163;BME280;23977;53.078;18.248;2023-05-21T10:23:40;101883.28;;;28.76;27.19
38163;BME280;23977;53.078;18.248;2023-05-21T10:26:07;101894.38;;;28.48;27.55
38163;BME280;23977;53.078;18.248;2023-05-21T10:28:33;101873.53;;;27.91;28.28
38163;BME280;23977;53.078;18.248;2023-05-21T10:30:59;101856.63;;;27.43;29.07
38163;BME280;23977;53.078;18.248;2023-05-21T10:33:25;101894.47;;;27.97;29.43
38163;BME280;23977;53.078;18.248;2023-05-21T10:35:52;101885.69;;;28.12;28.54
38163;BME280;23977;53.078;18.248;2023-05-21T10:38:19;101870.50;;;28.04;28.78
38163;BME280;23977;53.078;18.248;2023-05-21T10:40:46;101866.03;;;28.37;28.86
38163;BME280;23977;53.078;18.248;2023-05-21T10:54:50;101881.47;;;28.43;30.03
38163;BME280;23977;53.078;18.248;2023-05-21T10:57:49;101846.91;;;28.59;28.19
38163;BME280;23977;53.078;18.248;2023-05-21T11:00:20;101870.50;;;28.04;29.27
38163;BME280;23977;53.078;18.248;2023-05-21T11:02:49;101866.22;;;28.30;28.75
38163;BME280;23977;53.078;18.248;2023-05-21T11:05:53;101872.19;;;28.27;29.27
38163;BME280;23977;53.078;18.248;2023-05-21T11:08:27;101882.59;;;28.25;28.23
38163;BME280;23977;53.078;18.248;2023-05-21T11:10:57;101861.47;;;28.03;28.70
38163;BME280;23977;53.078;18.248;2023-05-21T11:13:25;101867.25;;;27.90;29.44
38163;BME280;23977;53.078;18.248;2023-05-21T11:21:13;101842.72;;;27.61;29.29
38163;BME280;23977;53.078;18.248;2023-05-21T11:24:01;101867.25;;;27.27;30.12
38163;BME280;23977;53.078;18.248;2023-05-21T11:26:57;101862.72;;;26.75;29.73
38163;BME280;23977;53.078;18.248;2023-05-21T11:29:17;101874.66;;;26.22;30.94
38163;BME280;23977;53.078;18.248;2023-05-21T11:31:47;101845.69;;;26.21;30.46
38163;BME280;23977;53.078;18.248;2023-05-21T11:34:21;101860.84;;;25.93;31.74
38163;BME280;23977;53.078;18.248;2023-05-21T11:39:41;101802.41;;;26.01;31.42
38163;BME280;23977;53.078;18.248;2023-05-21T11:42:08;101838.44;;;26.38;32.53
38163;BME280;23977;53.078;18.248;2023-05-21T11:44:38;101851.59;;;26.53;32.17
38163;BME280;23977;53.078;18.248;2023-05-21T11:47:05;101851.75;;;26.35;31.64
38163;BME280;23977;53.078;18.248;2023-05-21T11:49:31;101860.41;;;26.08;32.10
38163;BME280;23977;53.078;18.248;2023-05-21T11:51:59;101861.59;;;26.12;32.49
38163;BME280;23977;53.078;18.248;2023-05-21T11:54:24;101840.34;;;26.02;32.54
38163;BME280;23977;53.078;18.248;2023-05-21T11:56:52;101843.69;;;26.16;31.68
38163;BME280;23977;53.078;18.248;2023-05-21T11:59:18;101871.34;;;26.08;31.65
38163;BME280;23977;53.078;18.248;2023-05-21T12:01:44;101867.94;;;25.94;31.84
38163;BME280;23977;53.078;18.248;2023-05-21T12:04:10;101840.91;;;25.93;32.72
38163;BME280;23977;53.078;18.248;2023-05-21T12:06:37;101836.66;;;25.85;33.13
38163;BME280;23977;53.078;18.248;2023-05-21T12:09:08;101834.41;;;25.82;32.68
38163;BME280;23977;53.078;18.248;2023-05-21T12:11:37;101856.25;;;26.17;32.28
38163;BME280;23977;53.078;18.248;2023-05-21T12:14:08;101841.44;;;26.13;32.54
38163;BME280;23977;53.078;18.248;2023-05-21T12:16:34;101832.53;;;26.06;31.91
38163;BME280;23977;53.078;18.248;2023-05-21T12:19:03;101862.19;;;26.14;31.46
38163;BME280;23977;53.078;18.248;2023-05-21T12:21:30;101841.69;;;26.00;31.36
38163;BME280;23977;53.078;18.248;2023-05-21T12:23:56;101853.41;;;26.12;32.12
38163;BME280;23977;53.078;18.248;2023-05-21T12:26:23;101841.09;;;26.10;31.25
38163;BME280;23977;53.078;18.248;2023-05-21T12:28:51;101833.69;;;26.34;31.85
38163;BME280;23977;53.078;18.248;2023-05-21T12:31:18;101844.28;;;26.18;31.27
38163;BME280;23977;53.078;18.248;2023-05-21T12:33:47;101846.41;;;26.28;31.51
38163;BME280;23977;53.078;18.248;2023-05-21T12:36:28;101808.09;;;25.99;31.05
38163;BME280;23977;53.078;18.248;2023-05-21T12:38:54;101812.13;;;26.20;30.99
38163;BME280;23977;53.078;18.248;2023-05-21T12:41:21;101807.47;;;26.33;30.07
38163;BME280;23977;53.078;18.248;2023-05-21T12:43:47;101827.69;;;26.61;30.83
38163;BME280;23977;53.078;18.248;2023-05-21T12:46:15;101798.03;;;26.52;29.61
38163;BME280;23977;53.078;18.248;2023-05-21T12:48:53;101818.34;;;26.56;30.02
38163;BME280;23977;53.078;18.248;2023-05-21T12:51:20;101834.59;;;26.75;29.89
38163;BME280;23977;53.078;18.248;2023-05-21T12:53:46;101794.28;;;26.42;29.93
38163;BME280;23977;53.078;18.248;2023-05-21T12:56:13;101830.50;;;26.37;29.38
38163;BME280;23977;53.078;18.248;2023-05-21T12:58:40;101805.44;;;26.40;29.62
38163;BME280;23977;53.078;18.248;2023-05-21T13:01:10;101824.75;;;26.50;30.00